Time;durP1;ratioP1;P1;durP2;ratioP2;P2;SDS_P1;SDS_P2;PMS_P1;PMS_P2;Temp;Humidity;BMP_temperature;BMP_pressure;BME280_temperature;BME280_humidity;BME280_pressure;Samples;Min_cycle;Max_cycle;Signal;HPM_P1;HPM_P2
2022/08/20 00:00:38;;;;;;;11.38;10.25;;;20.50;99.90;;;;;;5073297;28;20047;-54
2022/08/20 00:03:26;;;;;;;12.88;11.45;;;20.50;99.90;;;;;;5072548;28;20085;-50
2022/08/20 00:06:15;;;;;;;13.07;11.50;;;20.50;99.90;;;;;;5053151;28;20505;-51
2022/08/20 00:08:42;;;;;;;12.80;11.43;;;20.50;99.90;;;;;;5060524;28;20036;-55
2022/08/20 00:11:11;;;;;;;15.70;11.10;;;20.40;99.90;;;;;;5073089;28;20032;-52
2022/08/20 00:13:42;;;;;;;12.98;11.63;;;20.40;99.90;;;;;;5072307;28;20347;-50
2022/08/20 00:16:09;;;;;;;13.73;12.02;;;20.40;99.90;;;;;;5073276;28;20410;-53
2022/08/20 00:18:38;;;;;;;13.07;11.88;;;20.30;99.90;;;;;;5072660;28;20040;-51
2022/08/20 00:21:07;;;;;;;13.55;12.15;;;20.30;99.90;;;;;;5073213;28;20128;-50
2022/08/20 00:23:35;;;;;;;16.25;13.65;;;20.30;99.90;;;;;;5072342;28;20490;-51
2022/08/20 00:26:00;;;;;;;16.58;12.23;;;20.30;99.90;;;;;;5071802;28;20378;-50
2022/08/20 00:28:26;;;;;;;;;;;20.20;99.90;;;;;;5072838;28;20577;-51
2022/08/20 00:30:51;;;;;;;16.83;13.60;;;20.20;99.90;;;;;;5073097;28;19916;-51
2022/08/20 00:33:19;;;;;;;;;;;20.20;99.90;;;;;;5072296;28;20036;-52
2022/08/20 00:35:46;;;;;;;;;;;20.20;99.90;;;;;;5073094;28;19917;-50
2022/08/20 00:38:11;;;;;;;13.60;12.07;;;20.10;99.90;;;;;;5072731;28;20373;-52
2022/08/20 00:40:42;;;;;;;;;;;20.10;99.90;;;;;;5072283;28;20047;-53
2022/08/20 00:43:27;;;;;;;12.07;10.90;;;20.10;99.90;;;;;;5072477;28;20346;-50
2022/08/20 00:45:55;;;;;;;13.23;10.50;;;20.10;99.90;;;;;;5052548;28;20560;-50
2022/08/20 00:48:22;;;;;;;12.88;11.60;;;20.10;99.90;;;;;;5051154;28;20512;-51
2022/08/20 00:50:47;;;;;;;13.02;11.77;;;20.10;99.90;;;;;;5071529;28;20036;-52
2022/08/20 00:53:13;;;;;;;;;;;20.10;99.90;;;;;;5072398;28;20122;-50
2022/08/20 00:55:40;;;;;;;13.30;11.93;;;20.10;99.90;;;;;;5072463;28;20437;-51
2022/08/20 00:58:08;;;;;;;18.45;12.02;;;20.10;99.90;;;;;;5072555;28;20040;-50
2022/08/20 01:00:44;;;;;;;11.77;10.68;;;20.00;99.90;;;;;;5070651;28;20040;-51
2022/08/20 01:03:13;;;;;;;13.43;12.00;;;20.00;99.90;;;;;;5070808;28;20094;-50
2022/08/20 01:05:45;;;;;;;13.98;12.00;;;20.00;99.90;;;;;;5071492;28;20090;-52
2022/08/20 01:08:12;;;;;;;13.10;11.73;;;20.00;99.90;;;;;;5072069;28;20551;-53
2022/08/20 01:10:41;;;;;;;13.13;11.82;;;20.00;99.90;;;;;;5072179;28;20041;-50
2022/08/20 01:13:09;;;;;;;14.80;12.75;;;20.00;99.90;;;;;;5072181;28;20048;-50
2022/08/20 01:15:39;;;;;;;13.10;11.80;;;20.00;99.90;;;;;;5072202;28;20029;-55
2022/08/20 01:18:09;;;;;;;16.58;12.65;;;19.90;99.90;;;;;;5071425;28;20592;-53
2022/08/20 01:20:42;;;;;;;13.38;11.98;;;19.90;99.90;;;;;;5071649;28;20513;-53
2022/08/20 01:23:34;;;;;;;13.57;12.18;;;19.90;99.90;;;;;;5071902;28;20410;-50
2022/08/20 01:26:10;;;;;;;12.77;11.55;;;19.90;99.90;;;;;;5071332;28;20053;-53
2022/08/20 01:28:53;;;;;;;15.18;13.38;;;19.90;99.90;;;;;;5071433;28;20040;-51
2022/08/20 01:31:25;;;;;;;13.18;11.10;;;19.90;99.90;;;;;;5071788;28;20040;-50
2022/08/20 01:33:52;;;;;;;11.93;10.75;;;19.90;99.90;;;;;;5071639;28;20559;-50
2022/08/20 01:36:26;;;;;;;12.40;11.10;;;19.90;99.90;;;;;;5071272;28;20127;-52
2022/08/20 01:38:51;;;;;;;12.85;11.48;;;19.90;99.90;;;;;;5071274;28;20406;-50
2022/08/20 01:41:29;;;;;;;11.68;10.48;;;19.90;99.90;;;;;;5071332;28;20039;-50
2022/08/20 01:43:55;;;;;;;11.07;9.73;;;19.90;99.90;;;;;;5071511;28;20448;-52
2022/08/20 01:46:24;;;;;;;11.45;10.25;;;19.80;99.90;;;;;;5071056;28;20119;-52
2022/08/20 01:48:50;;;;;;;13.27;10.45;;;19.80;99.90;;;;;;5071119;28;20510;-53
2022/08/20 01:51:22;;;;;;;16.60;11.13;;;19.80;99.90;;;;;;5071119;28;20042;-52
2022/08/20 01:53:51;;;;;;;12.00;10.32;;;19.80;99.90;;;;;;5071177;28;20048;-50
2022/08/20 01:56:21;;;;;;;13.20;11.05;;;19.70;99.90;;;;;;5071069;28;20040;-51
2022/08/20 01:58:50;;;;;;;15.25;10.05;;;19.70;99.90;;;;;;5070807;28;20041;-53
2022/08/20 02:01:33;;;;;;;15.45;11.02;;;19.70;99.90;;;;;;5070993;28;20043;-50
2022/08/20 02:04:01;;;;;;;11.00;9.52;;;19.70;99.90;;;;;;5070325;28;20143;-51
2022/08/20 02:06:30;;;;;;;14.23;10.18;;;19.70;99.90;;;;;;5071032;28;20040;-53
2022/08/20 02:09:00;;;;;;;13.60;10.02;;;19.70;99.90;;;;;;5071183;28;20391;-50
2022/08/20 02:11:28;;;;;;;11.73;9.77;;;19.70;99.90;;;;;;5070503;28;20506;-51
2022/08/20 02:13:55;;;;;;;16.85;10.32;;;19.70;99.90;;;;;;5070458;28;20043;-50
2022/08/20 02:16:29;;;;;;;12.73;10.25;;;19.70;99.90;;;;;;5069806;28;20032;-51
2022/08/20 02:19:03;;;;;;;11.63;10.43;;;19.70;99.90;;;;;;5071103;28;20173;-51
2022/08/20 02:21:32;;;;;;;12.20;9.65;;;19.70;99.90;;;;;;5070295;28;20068;-53
2022/08/20 02:23:58;;;;;;;15.13;11.00;;;19.60;99.90;;;;;;5070590;28;20040;-55
2022/08/20 02:26:25;;;;;;;12.30;9.50;;;19.60;99.90;;;;;;5070127;28;20051;-50
2022/08/20 02:28:53;;;;;;;16.08;10.15;;;19.60;99.90;;;;;;5070084;28;20494;-50
2022/08/20 02:31:21;;;;;;;10.50;9.32;;;19.60;99.90;;;;;;5070487;28;20064;-50
2022/08/20 02:33:48;;;;;;;11.55;8.85;;;19.60;99.90;;;;;;5070229;28;20133;-50
2022/08/20 02:36:16;;;;;;;9.82;8.73;;;19.60;99.90;;;;;;5069970;28;20036;-51
2022/08/20 02:38:43;;;;;;;13.60;9.07;;;19.60;99.90;;;;;;5070294;28;20067;-50
2022/08/20 02:41:09;;;;;;;14.15;10.00;;;19.50;99.90;;;;;;5069757;28;20051;-51
2022/08/20 02:43:36;;;;;;;10.52;8.27;;;19.40;99.90;;;;;;5068297;28;20037;-52
2022/08/20 02:46:03;;;;;;;18.75;9.18;;;19.40;99.90;;;;;;5069835;28;20054;-50
2022/08/20 02:48:30;;;;;;;12.20;9.40;;;19.40;99.90;;;;;;5070440;28;20039;-51
2022/08/20 02:50:59;;;;;;;15.73;9.50;;;19.40;99.90;;;;;;5070042;28;20037;-52
2022/08/20 02:53:25;;;;;;;11.45;8.65;;;19.40;99.90;;;;;;5070093;28;20266;-50
2022/08/20 02:55:51;;;;;;;17.08;9.32;;;19.40;99.90;;;;;;5069584;28;20466;-53
2022/08/20 02:58:17;;;;;;;;;;;19.40;99.90;;;;;;5070539;28;20056;-50
2022/08/20 03:00:43;;;;;;;13.45;9.13;;;19.40;99.90;;;;;;5069934;28;19963;-50
2022/08/20 03:03:11;;;;;;;12.40;8.60;;;19.30;99.90;;;;;;5070033;28;20402;-50
2022/08/20 03:05:39;;;;;;;11.70;7.30;;;19.30;99.90;;;;;;5070200;28;20433;-50
2022/08/20 03:08:07;;;;;;;11.93;8.50;;;19.30;99.90;;;;;;5069849;28;20028;-50
2022/08/20 03:10:34;;;;;;;12.35;8.32;;;19.20;99.90;;;;;;5069496;28;20462;-50
2022/08/20 03:13:01;;;;;;;18.55;8.63;;;19.20;99.90;;;;;;5069619;28;20456;-50
2022/08/20 03:15:28;;;;;;;12.60;8.02;;;19.20;99.90;;;;;;5070060;28;20047;-53
2022/08/20 03:17:53;;;;;;;10.38;7.18;;;19.20;99.90;;;;;;5069673;28;20131;-50
2022/08/20 03:20:20;;;;;;;8.63;7.57;;;19.10;99.90;;;;;;5070291;28;20123;-50
2022/08/20 03:22:47;;;;;;;11.10;8.02;;;19.10;99.90;;;;;;5070079;28;20052;-54
2022/08/20 03:25:13;;;;;;;14.13;7.85;;;19.10;99.90;;;;;;5069607;28;20041;-52
2022/08/20 03:27:39;;;;;;;6.40;5.25;;;19.00;99.90;;;;;;5073912;28;20041;-56
2022/08/20 03:30:05;;;;;;;;;;;19.00;99.90;;;;;;5074152;28;20089;-50
2022/08/20 03:32:31;;;;;;;9.85;6.57;;;19.00;99.90;;;;;;5074220;28;20027;-50
2022/08/20 03:34:56;;;;;;;11.68;7.68;;;19.00;99.90;;;;;;5073572;28;20112;-50
2022/08/20 03:37:22;;;;;;;8.77;7.88;;;18.90;99.90;;;;;;5073512;28;20147;-54
2022/08/20 03:39:48;;;;;;;9.82;7.15;;;18.90;99.90;;;;;;5073836;28;20037;-50
2022/08/20 03:42:13;;;;;;;10.10;7.50;;;18.90;99.90;;;;;;5073616;28;20486;-51
2022/08/20 03:44:39;;;;;;;11.88;8.20;;;18.80;99.90;;;;;;5073380;28;20062;-50
2022/08/20 03:47:08;;;;;;;12.15;7.55;;;18.80;99.90;;;;;;5073024;28;20083;-50
2022/08/20 03:49:34;;;;;;;14.63;8.45;;;18.80;99.90;;;;;;5073633;28;20044;-51
2022/08/20 03:52:02;;;;;;;9.18;7.30;;;18.80;99.90;;;;;;5073347;28;20055;-53
2022/08/20 03:54:28;;;;;;;10.23;6.95;;;18.80;99.90;;;;;;5073038;28;20110;-53
2022/08/20 03:56:53;;;;;;;14.02;7.43;;;18.80;99.90;;;;;;5071714;28;20538;-50
2022/08/20 03:59:19;;;;;;;;;;;18.80;99.90;;;;;;5073645;28;20043;-50
2022/08/20 04:01:45;;;;;;;9.77;7.90;;;18.80;99.90;;;;;;5073284;28;19916;-54
2022/08/20 04:04:10;;;;;;;;;;;18.70;99.90;;;;;;5073501;28;20045;-54
2022/08/20 04:06:36;;;;;;;7.70;6.60;;;18.70;99.90;;;;;;5072950;28;19974;-52
2022/08/20 04:09:02;;;;;;;9.15;5.80;;;18.70;99.90;;;;;;5072478;28;20437;-50
2022/08/20 04:11:27;;;;;;;6.13;5.63;;;18.70;99.90;;;;;;5073173;28;20036;-51
2022/08/20 04:13:53;;;;;;;;;;;18.70;99.90;;;;;;5073369;28;20032;-50
2022/08/20 04:16:18;;;;;;;8.80;6.32;;;18.60;99.90;;;;;;5072927;28;19920;-54
2022/08/20 04:18:44;;;;;;;;;;;18.60;99.90;;;;;;5073298;28;20043;-51
2022/08/20 04:21:09;;;;;;;17.45;7.40;;;18.60;99.90;;;;;;5072646;28;20301;-51
2022/08/20 04:23:35;;;;;;;16.88;8.25;;;18.60;99.90;;;;;;5072427;28;20119;-51
2022/08/20 04:26:00;;;;;;;10.82;7.30;;;18.50;99.90;;;;;;5072505;28;20044;-50
2022/08/20 04:28:27;;;;;;;11.98;7.43;;;18.50;99.90;;;;;;5073025;28;20071;-53
2022/08/20 04:30:58;;;;;;;14.48;7.72;;;18.50;99.90;;;;;;5072630;28;20561;-53
2022/08/20 04:33:26;;;;;;;12.05;7.90;;;18.40;99.90;;;;;;5052714;28;20102;-50
2022/08/20 04:35:53;;;;;;;13.02;7.28;;;18.40;99.90;;;;;;5052714;28;20379;-53
2022/08/20 04:38:20;;;;;;;8.05;6.97;;;18.30;99.90;;;;;;5072402;28;20131;-50
2022/08/20 04:41:04;;;;;;;9.38;7.45;;;18.30;99.90;;;;;;5071128;28;20052;-50
2022/08/20 04:43:32;;;;;;;8.05;6.43;;;18.30;99.90;;;;;;5071984;28;20029;-50
2022/08/20 04:46:05;;;;;;;8.35;5.90;;;18.30;99.90;;;;;;5072295;28;20115;-55
2022/08/20 04:48:31;;;;;;;12.50;7.85;;;18.30;99.90;;;;;;5071842;28;20417;-50
2022/08/20 04:51:01;;;;;;;13.00;6.80;;;18.40;99.90;;;;;;5072806;28;20032;-50
2022/08/20 04:53:27;;;;;;;10.57;8.07;;;18.40;99.90;;;;;;5072162;28;20044;-50
2022/08/20 04:55:57;;;;;;;7.78;6.43;;;18.40;99.90;;;;;;5072896;28;20094;-51
2022/08/20 04:58:27;;;;;;;11.18;7.55;;;18.40;99.90;;;;;;5072612;28;20036;-50
2022/08/20 05:00:55;;;;;;;10.00;6.75;;;18.40;99.90;;;;;;5072247;28;20142;-50
2022/08/20 05:03:21;;;;;;;9.10;7.78;;;18.40;99.90;;;;;;5072176;28;20040;-51
2022/08/20 05:05:49;;;;;;;11.75;7.57;;;18.40;99.90;;;;;;5072410;28;20043;-50
2022/08/20 05:08:16;;;;;;;13.23;7.90;;;18.40;99.90;;;;;;5072437;28;20414;-50
2022/08/20 05:10:42;;;;;;;10.63;8.38;;;18.40;99.90;;;;;;5072197;28;20379;-50
2022/08/20 05:13:08;;;;;;;10.27;7.38;;;18.40;99.90;;;;;;5071722;28;20226;-50
2022/08/20 05:15:36;;;;;;;14.52;8.25;;;18.50;99.90;;;;;;5071614;28;20032;-50
2022/08/20 05:18:04;;;;;;;11.32;7.75;;;18.40;99.90;;;;;;5072086;28;20125;-50
2022/08/20 05:20:32;;;;;;;15.10;6.75;;;18.40;99.90;;;;;;5072242;28;20040;-50
2022/08/20 05:22:58;;;;;;;8.93;7.00;;;18.40;99.90;;;;;;5071077;28;20040;-50
2022/08/20 05:25:28;;;;;;;9.27;7.32;;;18.40;99.90;;;;;;5071866;28;20466;-50
2022/08/20 05:28:04;;;;;;;8.45;7.55;;;18.40;99.90;;;;;;5070970;28;20047;-50
2022/08/20 05:30:32;;;;;;;15.45;8.02;;;18.40;99.90;;;;;;5068135;28;20060;-50
2022/08/20 05:32:59;;;;;;;18.98;7.75;;;18.40;99.90;;;;;;5071399;28;20040;-50
2022/08/20 05:35:26;;;;;;;11.45;8.50;;;18.30;99.90;;;;;;5065239;28;20037;-49
2022/08/20 05:37:52;;;;;;;15.60;7.22;;;18.30;99.90;;;;;;5051820;28;20048;-53
2022/08/20 05:40:20;;;;;;;13.00;7.60;;;18.30;99.90;;;;;;5051464;28;20044;-50
2022/08/20 05:42:46;;;;;;;9.88;7.35;;;18.30;99.90;;;;;;5050802;28;20059;-51
2022/08/20 05:45:11;;;;;;;16.25;6.88;;;18.30;99.90;;;;;;5060233;28;20103;-50
2022/08/20 05:47:39;;;;;;;12.27;7.38;;;18.20;99.90;;;;;;5069987;28;20528;-52
2022/08/20 05:50:06;;;;;;;11.27;7.60;;;18.30;99.90;;;;;;5070828;28;20193;-50
2022/08/20 05:52:32;;;;;;;8.10;7.30;;;18.30;99.90;;;;;;5051416;28;20064;-55
2022/08/20 05:54:58;;;;;;;9.38;6.47;;;18.30;99.90;;;;;;5050834;28;20402;-52
2022/08/20 05:57:23;;;;;;;13.68;7.65;;;18.30;99.90;;;;;;5051249;28;20048;-53
2022/08/20 05:59:49;;;;;;;12.07;7.05;;;18.30;99.90;;;;;;5051173;28;20048;-50
2022/08/20 06:04:59;;;;;;;9.23;6.75;;;18.30;99.90;;;;;;5050984;28;20049;-51
2022/08/20 06:07:25;;;;;;;;;;;18.30;99.90;;;;;;5064184;28;20474;-50
2022/08/20 06:09:51;;;;;;;14.25;6.57;;;18.30;99.90;;;;;;5069431;28;19931;-50
2022/08/20 06:12:17;;;;;;;16.15;6.47;;;18.40;99.90;;;;;;5070690;28;20047;-50
2022/08/20 06:14:43;;;;;;;11.82;6.45;;;18.40;99.90;;;;;;5070421;28;20032;-53
2022/08/20 06:17:09;;;;;;;;;;;18.40;99.90;;;;;;5069810;28;20044;-51
2022/08/20 06:19:37;;;;;;;13.65;5.80;;;18.50;99.90;;;;;;5070599;28;19917;-55
2022/08/20 06:22:04;;;;;;;13.02;6.95;;;18.50;99.90;;;;;;5070418;28;20048;-52
2022/08/20 06:24:30;;;;;;;11.20;6.47;;;18.60;99.90;;;;;;5069847;28;20456;-51
2022/08/20 06:27:02;;;;;;;14.65;5.32;;;18.60;99.90;;;;;;5070663;28;20098;-55
2022/08/20 06:29:28;;;;;;;8.25;5.68;;;18.70;99.90;;;;;;5070457;28;20048;-53
2022/08/20 06:31:54;;;;;;;;;;;18.80;99.90;;;;;;5070743;28;20068;-54
2022/08/20 06:34:20;;;;;;;11.73;5.60;;;18.90;99.90;;;;;;5069692;28;20353;-55
2022/08/20 06:36:46;;;;;;;;;;;19.00;99.90;;;;;;5070366;28;20123;-52
2022/08/20 06:39:13;;;;;;;16.67;5.28;;;19.10;99.90;;;;;;5070365;28;19991;-52
2022/08/20 06:41:39;;;;;;;15.27;4.90;;;19.20;99.90;;;;;;5069945;28;20043;-54
2022/08/20 06:44:06;;;;;;;15.85;4.28;;;19.20;99.90;;;;;;5069712;28;20636;-51
2022/08/20 06:46:35;;;;;;;8.80;4.55;;;19.30;99.90;;;;;;5085461;28;20055;-51
2022/08/20 06:49:02;;;;;;;7.45;3.70;;;19.30;99.90;;;;;;5066082;28;20071;-51
2022/08/20 06:51:28;;;;;;;7.50;2.80;;;19.30;99.90;;;;;;5069903;28;20058;-51
2022/08/20 06:53:55;;;;;;;9.57;3.80;;;19.30;99.90;;;;;;5065452;28;20491;-51
2022/08/20 06:56:20;;;;;;;;;;;19.20;99.90;;;;;;5050737;28;20398;-52
2022/08/20 06:58:46;;;;;;;10.70;4.63;;;19.30;99.90;;;;;;5050243;28;19917;-51
2022/08/20 07:01:12;;;;;;;;;;;19.30;99.90;;;;;;5066387;28;20119;-51
2022/08/20 07:03:39;;;;;;;6.90;2.30;;;19.30;99.90;;;;;;5069319;28;19923;-51
2022/08/20 07:06:06;;;;;;;11.13;3.28;;;19.40;99.90;;;;;;5068134;28;20044;-51
2022/08/20 07:08:32;;;;;;;8.13;2.88;;;19.40;99.90;;;;;;5069449;28;20040;-54
2022/08/20 07:10:58;;;;;;;;;;;19.50;99.90;;;;;;5069656;28;20127;-54
2022/08/20 07:13:23;;;;;;;12.82;2.58;;;19.70;99.90;;;;;;5069618;28;19932;-55
2022/08/20 07:15:49;;;;;;;9.50;2.97;;;19.70;99.90;;;;;;5069851;28;20051;-51
2022/08/20 07:18:15;;;;;;;;;;;19.80;99.90;;;;;;5069642;28;20450;-54
2022/08/20 07:20:41;;;;;;;8.43;2.28;;;19.90;99.90;;;;;;5068927;28;19949;-53
2022/08/20 07:23:09;;;;;;;13.57;2.78;;;19.80;99.90;;;;;;5067930;28;20082;-56
2022/08/20 07:25:34;;;;;;;5.68;1.92;;;19.80;99.90;;;;;;5069493;28;20028;-51
2022/08/20 07:28:13;;;;;;;9.05;2.90;;;19.80;99.90;;;;;;5069644;28;20041;-55
2022/08/20 07:33:28;;;;;;;6.53;2.17;;;19.70;99.90;;;;;;5069826;28;20041;-51
2022/08/20 07:35:55;;;;;;;10.90;2.45;;;19.80;99.90;;;;;;5069736;28;20037;-52
2022/08/20 07:38:23;;;;;;;6.82;2.70;;;20.00;99.90;;;;;;5069498;28;20501;-50
2022/08/20 07:40:52;;;;;;;5.40;1.55;;;20.20;99.90;;;;;;5069533;28;20045;-50
2022/08/20 07:43:17;;;;;;;5.20;1.63;;;20.30;99.90;;;;;;5069063;28;20064;-52
2022/08/20 07:45:43;;;;;;;12.05;1.65;;;20.50;99.90;;;;;;5069370;28;20107;-51
2022/08/20 07:48:10;;;;;;;;;;;20.60;99.90;;;;;;5069905;28;20052;-49
2022/08/20 07:50:36;;;;;;;5.50;1.02;;;20.70;99.90;;;;;;5069562;28;19920;-52
2022/08/20 07:53:03;;;;;;;7.38;1.08;;;20.70;99.90;;;;;;5069294;28;20457;-51
2022/08/20 07:55:29;;;;;;;6.88;1.80;;;20.70;99.90;;;;;;5069388;28;20418;-49
2022/08/20 07:57:57;;;;;;;12.13;1.40;;;20.60;99.90;;;;;;5069258;28;20036;-50
2022/08/20 08:00:25;;;;;;;5.72;0.90;;;20.70;99.90;;;;;;5069342;28;20045;-52
2022/08/20 08:02:51;;;;;;;6.22;0.88;;;20.70;99.90;;;;;;5069203;28;20115;-49
2022/08/20 08:05:17;;;;;;;5.88;0.80;;;20.80;99.90;;;;;;5069166;28;20560;-49
2022/08/20 08:07:44;;;;;;;8.70;0.93;;;21.00;99.90;;;;;;5069137;28;20113;-51
2022/08/20 08:10:15;;;;;;;4.35;0.80;;;21.20;99.90;;;;;;5069102;28;20029;-50
2022/08/20 08:12:44;;;;;;;5.68;0.70;;;21.20;99.90;;;;;;5071368;28;20037;-49
2022/08/20 08:15:14;;;;;;;7.28;1.35;;;21.30;99.90;;;;;;5072941;28;20036;-51
2022/08/20 08:17:40;;;;;;;12.48;0.60;;;21.40;99.90;;;;;;5072454;28;20048;-53
2022/08/20 08:20:07;;;;;;;9.07;0.90;;;21.30;99.90;;;;;;5073210;28;20036;-52
2022/08/20 08:22:33;;;;;;;2.92;0.50;;;21.20;99.90;;;;;;5072909;28;20325;-55
2022/08/20 08:25:01;;;;;;;;;;;21.20;99.90;;;;;;5073041;28;20044;-51
2022/08/20 08:27:33;;;;;;;6.53;0.95;;;21.20;99.90;;;;;;5072453;28;20361;-50
2022/08/20 08:30:00;;;;;;;3.75;0.52;;;21.10;99.90;;;;;;5073377;28;20040;-50
2022/08/20 08:32:27;;;;;;;6.85;0.63;;;21.10;99.90;;;;;;5072461;28;20033;-50
2022/08/20 08:34:52;;;;;;;4.32;0.52;;;21.20;99.90;;;;;;5073013;28;20033;-53
2022/08/20 08:37:18;;;;;;;;;;;21.30;99.90;;;;;;5072999;28;20094;-50
2022/08/20 08:39:43;;;;;;;4.50;0.70;;;21.40;99.70;;;;;;5072196;28;19977;-50
2022/08/20 08:42:27;;;;;;;;;;;21.60;99.90;;;;;;5072960;28;20440;-53
2022/08/20 08:44:53;;;;;;;7.57;0.50;;;21.80;99.00;;;;;;5069412;28;19923;-52
2022/08/20 08:47:26;;;;;;;;;;;21.80;99.10;;;;;;5071345;28;20467;-53
2022/08/20 08:49:51;;;;;;;6.63;0.75;;;21.90;98.00;;;;;;5072751;28;19916;-50
2022/08/20 08:52:19;;;;;;;;;;;21.90;98.90;;;;;;5072181;28;20086;-53
2022/08/20 08:54:50;;;;;;;4.40;0.70;;;22.00;98.40;;;;;;5072201;28;19916;-55
2022/08/20 08:57:15;;;;;;;4.72;0.57;;;22.00;98.40;;;;;;5072014;28;20052;-52
2022/08/20 08:59:43;;;;;;;;;;;22.10;98.30;;;;;;5072814;28;20379;-51
2022/08/20 09:02:19;;;;;;;3.00;0.32;;;22.10;97.10;;;;;;5071904;28;19950;-50
2022/08/20 09:04:45;;;;;;;5.55;0.70;;;22.00;97.50;;;;;;5071751;28;20075;-50
2022/08/20 09:07:14;;;;;;;5.40;0.73;;;21.90;97.20;;;;;;5071486;28;20485;-51
2022/08/20 09:09:42;;;;;;;3.75;0.47;;;21.90;97.30;;;;;;5072279;28;20478;-54
2022/08/20 09:12:12;;;;;;;5.05;0.40;;;21.80;97.00;;;;;;5071837;28;20068;-55
2022/08/20 09:14:38;;;;;;;2.97;0.50;;;21.80;97.10;;;;;;5071835;28;20037;-51
2022/08/20 09:17:04;;;;;;;8.60;0.73;;;21.90;97.50;;;;;;5071387;28;20040;-51
2022/08/20 09:19:30;;;;;;;;;;;22.10;96.80;;;;;;5071984;28;20462;-51
2022/08/20 09:21:55;;;;;;;3.92;0.40;;;22.20;95.90;;;;;;5071991;28;20306;-53
2022/08/20 09:24:21;;;;;;;;;;;22.30;96.90;;;;;;5071063;28;20604;-50
2022/08/20 09:26:46;;;;;;;5.32;0.70;;;22.50;96.00;;;;;;5071372;28;20308;-51
2022/08/20 09:29:12;;;;;;;4.00;0.40;;;22.70;96.10;;;;;;5071683;28;20037;-51
2022/08/20 09:31:38;;;;;;;4.53;0.60;;;22.90;94.80;;;;;;5071341;28;20036;-51
2022/08/20 09:34:04;;;;;;;;;;;23.00;94.30;;;;;;5071053;28;20082;-51
2022/08/20 09:36:29;;;;;;;2.70;0.30;;;23.00;92.40;;;;;;5071218;28;19954;-52
2022/08/20 09:38:55;;;;;;;4.50;0.30;;;23.10;93.50;;;;;;5071666;28;20040;-51
2022/08/20 09:41:21;;;;;;;3.25;0.40;;;23.20;93.70;;;;;;5069983;28;20068;-51
2022/08/20 09:43:46;;;;;;;4.43;0.65;;;23.20;94.20;;;;;;5068060;28;20094;-53
2022/08/20 09:46:12;;;;;;;3.20;0.30;;;23.30;93.20;;;;;;5069326;28;20067;-51
2022/08/20 09:48:37;;;;;;;7.20;0.60;;;23.30;92.60;;;;;;5069769;28;20044;-54
2022/08/20 09:51:04;;;;;;;4.45;0.85;;;23.20;92.80;;;;;;5071488;28;20075;-52
2022/08/20 09:53:30;;;;;;;1.13;0.20;;;23.40;93.20;;;;;;5070712;28;20488;-52
2022/08/20 09:55:56;;;;;;;4.15;0.50;;;23.40;93.10;;;;;;5071422;28;20051;-62
2022/08/20 09:58:33;;;;;;;5.47;0.47;;;23.60;92.80;;;;;;5070404;28;20024;-50
2022/08/20 10:01:07;;;;;;;7.43;1.90;;;23.60;91.90;;;;;;5071028;28;20044;-51
2022/08/20 10:03:33;;;;;;;6.82;0.52;;;23.60;92.10;;;;;;5070572;28;20394;-52
2022/08/20 10:05:58;;;;;;;6.38;0.57;;;23.60;92.10;;;;;;5071050;28;20043;-53
2022/08/20 10:08:24;;;;;;;3.75;0.30;;;23.60;91.90;;;;;;5071015;28;20466;-51
2022/08/20 10:10:50;;;;;;;6.22;0.57;;;23.70;92.00;;;;;;5071254;28;20048;-51
2022/08/20 10:13:16;;;;;;;3.42;0.35;;;23.80;92.00;;;;;;5070432;28;20037;-52
2022/08/20 10:15:41;;;;;;;4.88;0.28;;;23.90;91.40;;;;;;5070466;28;20162;-50
2022/08/20 10:18:07;;;;;;;3.30;0.28;;;24.00;90.80;;;;;;5069108;28;20048;-54
2022/08/20 10:20:34;;;;;;;2.35;0.40;;;24.00;88.30;;;;;;5069531;28;20055;-51
2022/08/20 10:23:00;;;;;;;4.45;0.63;;;23.90;87.80;;;;;;5065494;28;20044;-52
2022/08/20 10:25:27;;;;;;;2.40;0.30;;;23.90;88.60;;;;;;5069274;28;20087;-51
2022/08/20 10:27:53;;;;;;;5.50;0.38;;;23.90;87.20;;;;;;5069851;28;20047;-51
2022/08/20 10:30:19;;;;;;;3.05;0.30;;;24.00;87.90;;;;;;5070714;28;20044;-51
2022/08/20 10:32:45;;;;;;;1.67;0.20;;;24.10;87.30;;;;;;5069872;28;20509;-51
2022/08/20 10:35:10;;;;;;;1.73;0.20;;;24.30;86.70;;;;;;5069960;28;20040;-52
2022/08/20 10:37:36;;;;;;;2.40;0.38;;;24.40;85.10;;;;;;5070145;28;20119;-51
2022/08/20 10:40:03;;;;;;;4.22;0.52;;;24.40;84.80;;;;;;5070310;28;20481;-52
2022/08/20 10:42:28;;;;;;;4.35;0.57;;;24.50;85.80;;;;;;5070087;28;20749;-51
2022/08/20 10:44:54;;;;;;;3.70;0.40;;;24.40;84.10;;;;;;5069796;28;20441;-53
2022/08/20 10:47:31;;;;;;;2.90;0.30;;;24.50;85.40;;;;;;5069775;28;20386;-52
2022/08/20 10:49:59;;;;;;;4.82;0.40;;;24.60;85.40;;;;;;5050405;28;20111;-52
2022/08/20 10:52:26;;;;;;;7.07;0.60;;;24.60;84.00;;;;;;5050823;28;20511;-60
2022/08/20 10:54:52;;;;;;;9.75;0.80;;;24.70;84.60;;;;;;5068710;28;20127;-51
2022/08/20 10:57:24;;;;;;;4.68;0.43;;;24.80;84.10;;;;;;5069459;28;20032;-51
2022/08/20 10:59:52;;;;;;;5.40;0.90;;;24.80;84.10;;;;;;5050381;28;20132;-51
2022/08/20 11:02:18;;;;;;;2.67;0.57;;;24.70;82.70;;;;;;5050371;28;20498;-52
2022/08/20 11:04:44;;;;;;;3.20;0.25;;;24.70;83.00;;;;;;5068674;28;20047;-51
2022/08/20 11:07:22;;;;;;;3.53;0.35;;;24.70;82.50;;;;;;5069485;28;20119;-53
2022/08/20 11:09:49;;;;;;;6.75;0.30;;;24.60;82.80;;;;;;5070192;28;20033;-50
2022/08/20 11:12:16;;;;;;;3.72;0.40;;;24.60;82.90;;;;;;5070061;28;20119;-52
2022/08/20 11:14:42;;;;;;;5.75;0.30;;;24.70;80.90;;;;;;5069628;28;20519;-53
2022/08/20 11:17:08;;;;;;;5.10;0.40;;;24.70;81.20;;;;;;5069750;28;20044;-52
2022/08/20 11:19:39;;;;;;;6.00;0.57;;;24.70;80.20;;;;;;5069425;28;20090;-51
2022/08/20 11:22:04;;;;;;;3.72;0.28;;;24.80;80.60;;;;;;5069748;28;20037;-53
2022/08/20 11:24:30;;;;;;;2.63;0.30;;;24.80;81.50;;;;;;5069553;28;20094;-52
2022/08/20 11:26:56;;;;;;;6.10;0.95;;;24.90;81.80;;;;;;5070034;28;20044;-51
2022/08/20 11:29:23;;;;;;;13.23;1.00;;;25.00;80.70;;;;;;5069693;28;20086;-53
2022/08/20 11:31:49;;;;;;;3.80;0.30;;;25.00;80.30;;;;;;5070112;28;20040;-51
2022/08/20 11:34:15;;;;;;;3.53;0.30;;;25.00;80.60;;;;;;5069390;28;20033;-51
2022/08/20 11:36:40;;;;;;;5.72;0.65;;;24.90;80.60;;;;;;5069878;28;20047;-51
2022/08/20 11:39:06;;;;;;;2.58;0.40;;;24.80;79.90;;;;;;5069762;28;20036;-53
2022/08/20 11:41:31;;;;;;;4.07;0.50;;;24.80;79.10;;;;;;5070171;28;20600;-52
2022/08/20 11:43:57;;;;;;;6.80;0.70;;;24.70;77.80;;;;;;5069309;28;20056;-51
2022/08/20 11:46:22;;;;;;;4.13;0.45;;;24.70;79.90;;;;;;5070393;28;20045;-50
2022/08/20 11:48:48;;;;;;;3.15;0.32;;;24.70;79.60;;;;;;5073486;28;20040;-51
2022/08/20 11:51:14;;;;;;;5.60;0.73;;;24.80;79.80;;;;;;5073739;28;20521;-52
2022/08/20 11:53:39;;;;;;;4.78;0.50;;;24.90;79.70;;;;;;5072851;28;20036;-51
2022/08/20 11:56:05;;;;;;;4.22;0.30;;;25.00;77.90;;;;;;5073679;28;20040;-51
2022/08/20 11:58:32;;;;;;;6.80;0.60;;;25.00;77.50;;;;;;5073436;28;20142;-51
2022/08/20 12:00:58;;;;;;;6.30;0.65;;;24.90;78.30;;;;;;5073541;28;20040;-50
2022/08/20 12:03:23;;;;;;;2.10;0.57;;;25.00;78.80;;;;;;5073044;28;20379;-50
2022/08/20 12:05:49;;;;;;;3.55;0.40;;;25.10;78.90;;;;;;5072982;28;20394;-50
2022/08/20 12:08:16;;;;;;;4.15;0.40;;;25.30;80.30;;;;;;5073295;28;20127;-50
2022/08/20 12:10:41;;;;;;;4.65;0.80;;;25.40;77.30;;;;;;5073190;28;20028;-50
2022/08/20 12:13:07;;;;;;;6.32;0.40;;;25.60;76.00;;;;;;5072956;28;20085;-52
2022/08/20 12:15:35;;;;;;;6.88;0.60;;;25.60;77.20;;;;;;5072887;28;20055;-50
2022/08/20 12:18:04;;;;;;;5.68;0.63;;;25.70;77.30;;;;;;5073400;28;20156;-50
2022/08/20 12:20:29;;;;;;;4.10;0.32;;;25.80;76.50;;;;;;5072508;28;20510;-52
2022/08/20 12:22:57;;;;;;;3.00;0.47;;;25.80;75.80;;;;;;5073064;28;20079;-51
2022/08/20 12:25:23;;;;;;;6.05;0.57;;;25.90;75.10;;;;;;5071544;28;20044;-49
2022/08/20 12:27:49;;;;;;;2.05;0.52;;;25.90;74.60;;;;;;5072560;28;20044;-50
2022/08/20 12:30:20;;;;;;;4.20;0.47;;;26.00;75.70;;;;;;5072860;28;20098;-48
2022/08/20 12:32:46;;;;;;;5.28;0.40;;;26.00;73.80;;;;;;5072565;28;20699;-49
2022/08/20 12:35:14;;;;;;;112.03;5.72;;;26.00;74.80;;;;;;5072364;28;20120;-49
2022/08/20 12:37:40;;;;;;;2.35;0.20;;;26.10;74.70;;;;;;5072462;28;20062;-48
2022/08/20 12:40:10;;;;;;;19.35;0.95;;;26.20;74.50;;;;;;5072847;28;20037;-49
2022/08/20 12:42:36;;;;;;;6.03;0.60;;;26.20;71.50;;;;;;5072559;28;20052;-49
2022/08/20 12:45:03;;;;;;;4.80;0.55;;;26.20;72.40;;;;;;5072321;28;20182;-49
2022/08/20 12:47:33;;;;;;;4.40;0.50;;;26.20;72.80;;;;;;5072020;28;20115;-49
2022/08/20 12:50:01;;;;;;;3.63;0.45;;;26.30;71.10;;;;;;5072208;28;20044;-48
2022/08/20 12:52:29;;;;;;;3.80;0.50;;;26.20;70.80;;;;;;5072573;28;20547;-51
2022/08/20 12:54:55;;;;;;;2.60;0.40;;;26.10;70.50;;;;;;5070635;28;20040;-49